createdAt,value
2017-05-24T00:00:25.298Z,44.28
2017-05-24T00:02:40.724Z,44.20
2017-05-24T00:03:02.852Z,44.16
2017-05-24T00:03:30.597Z,44.32
2017-05-24T00:04:31.172Z,44.83
2017-05-24T00:04:58.743Z,44.87
2017-05-24T00:05:26.426Z,44.58
2017-05-24T00:05:53.945Z,44.47
2017-05-24T00:07:25.914Z,45.19
2017-05-24T00:07:56.018Z,45.45
2017-05-24T00:08:27.360Z,45.32
2017-05-24T00:10:02.571Z,45.07
2017-05-24T00:10:30.272Z,45.15
2017-05-24T00:10:58.227Z,44.92
2017-05-24T00:12:22.802Z,44.71
2017-05-24T00:12:50.496Z,44.63
2017-05-24T00:14:01.827Z,44.53
2017-05-24T00:17:16.737Z,44.11
2017-05-24T00:17:46.007Z,44.32
2017-05-24T00:18:15.567Z,44.50
2017-05-24T00:19:55.011Z,44.53
2017-05-24T00:20:24.151Z,44.99
2017-05-24T00:21:34.169Z,44.46
2017-05-24T00:23:20.123Z,44.47
2017-05-24T00:23:51.449Z,44.35
2017-05-24T00:25:30.892Z,44.99
2017-05-24T00:26:08.300Z,44.77
2017-05-24T00:28:04.301Z,44.46
2017-05-24T00:29:07.870Z,44.71
2017-05-24T00:29:43.906Z,44.65
2017-05-24T00:30:09.346Z,44.71
2017-05-24T00:30:40.699Z,44.45
2017-05-24T00:31:03.583Z,44.39
2017-05-24T00:32:01.644Z,44.95
2017-05-24T00:32:33.040Z,45.13
2017-05-24T00:33:00.673Z,45.12
2017-05-24T00:34:00.654Z,45.06
2017-05-24T00:35:08.685Z,44.88
2017-05-24T00:36:02.931Z,45.16
2017-05-24T00:36:34.218Z,45.12
2017-05-24T00:37:05.644Z,44.99
2017-05-24T00:37:33.302Z,45.09
2017-05-24T00:38:26.568Z,45.13
2017-05-24T00:41:09.726Z,45.19
2017-05-24T00:42:12.620Z,45.57
2017-05-24T00:42:35.527Z,45.44
2017-05-24T00:44:22.501Z,45.44
2017-05-24T00:44:55.832Z,45.29
2017-05-24T00:46:03.818Z,45.51
2017-05-24T00:46:33.235Z,45.30
2017-05-24T00:47:27.942Z,45.50
2017-05-24T00:49:09.648Z,45.61
2017-05-24T00:50:12.365Z,45.87
2017-05-24T00:50:39.125Z,45.99
2017-05-24T00:51:03.128Z,46.39
2017-05-24T00:52:05.127Z,46.30
2017-05-24T00:52:36.408Z,46.09
2017-05-24T00:53:41.973Z,46.07
2017-05-24T00:54:03.886Z,46.10
2017-05-24T00:55:45.895Z,45.96
2017-05-24T00:59:37.865Z,46.16
2017-05-24T01:01:11.140Z,46.11
2017-05-24T01:01:47.268Z,46.09
2017-05-24T01:05:09.940Z,46.19
2017-05-24T01:07:03.682Z,46.59
2017-05-24T01:07:31.413Z,46.72
2017-05-24T01:10:53.679Z,46.55
2017-05-24T01:12:30.617Z,46.47
2017-05-24T01:13:58.126Z,46.77
2017-05-24T01:14:29.344Z,47.36
2017-05-24T01:14:58.715Z,47.60
2017-05-24T01:16:10.854Z,47.29
2017-05-24T01:17:12.247Z,46.95
2017-05-24T01:17:41.448Z,47.40
2017-05-24T01:18:15.733Z,47.65
2017-05-24T01:18:45.280Z,47.57
2017-05-24T01:19:14.367Z,47.19
2017-05-24T01:19:36.200Z,47.10
2017-05-24T01:19:58.397Z,47.28
2017-05-24T01:20:25.167Z,47.07
2017-05-24T01:20:54.617Z,47.14
2017-05-24T01:21:28.695Z,47.10
2017-05-24T01:23:11.861Z,47.40
2017-05-24T01:24:18.369Z,47.38
2017-05-24T01:24:52.451Z,47.23
2017-05-24T01:25:23.957Z,46.79
2017-05-24T01:25:58.197Z,47.14
2017-05-24T01:26:20.637Z,47.13
2017-05-24T01:26:47.305Z,47.11
2017-05-24T01:27:09.036Z,47.15
2017-05-24T01:28:19.045Z,46.68
2017-05-24T01:28:40.923Z,46.86
2017-05-24T01:29:03.065Z,47.01
2017-05-24T01:29:59.328Z,46.93
2017-05-24T01:30:30.771Z,47.14
2017-05-24T01:30:57.408Z,47.37
2017-05-24T01:31:22.546Z,47.74
2017-05-24T01:32:54.751Z,48.47
2017-05-24T01:33:16.901Z,48.82
2017-05-24T01:33:41.942Z,48.75
2017-05-24T01:34:04.470Z,48.70
2017-05-24T01:34:29.615Z,48.51
2017-05-24T01:35:01.097Z,48.33
2017-05-24T01:35:27.819Z,48.34
2017-05-24T01:35:59.472Z,48.28
2017-05-24T01:36:53.076Z,48.42
2017-05-24T01:37:19.963Z,48.13
2017-05-24T01:37:42.077Z,48.14
2017-05-24T01:38:13.496Z,48.18
2017-05-24T01:38:38.515Z,48.19
2017-05-24T01:39:00.876Z,48.08
2017-05-24T01:39:28.773Z,48.08
2017-05-24T01:40:33.997Z,47.54
2017-05-24T01:40:56.881Z,47.73
2017-05-24T01:41:45.846Z,47.23
2017-05-24T01:42:12.452Z,47.20
2017-05-24T01:42:43.499Z,47.40
2017-05-24T01:43:10.017Z,46.97
2017-05-24T01:43:36.694Z,46.91
2017-05-24T01:44:03.432Z,47.02
2017-05-24T01:44:30.325Z,47.13
2017-05-24T01:44:53.086Z,46.91
2017-05-24T01:45:14.897Z,46.74
2017-05-24T01:45:39.872Z,46.85
2017-05-24T01:46:13.969Z,46.70
2017-05-24T01:46:48.187Z,46.61
2017-05-24T01:47:27.131Z,46.66
2017-05-24T01:49:04.630Z,46.88
2017-05-24T01:49:26.490Z,46.79
2017-05-24T01:49:51.635Z,46.95
2017-05-24T01:50:43.224Z,47.00
2017-05-24T01:51:05.303Z,46.86
2017-05-24T01:51:38.928Z,46.61
2017-05-24T01:52:34.812Z,46.51
2017-05-24T01:52:59.534Z,46.49
2017-05-24T01:53:24.989Z,46.48
2017-05-24T01:54:23.371Z,46.31
2017-05-24T01:54:49.914Z,46.46
2017-05-24T01:56:44.288Z,46.32
2017-05-24T01:57:13.614Z,46.61
2017-05-24T01:57:35.350Z,46.69
2017-05-24T01:58:33.881Z,46.64
2017-05-24T01:58:56.621Z,46.79
2017-05-24T01:59:27.898Z,46.52
2017-05-24T01:59:57.357Z,46.60
2017-05-24T02:01:05.221Z,46.74
2017-05-24T02:02:11.514Z,46.98
2017-05-24T02:02:46.168Z,46.81
2017-05-24T02:03:13.734Z,46.90
2017-05-24T02:03:40.526Z,47.03
2017-05-24T02:05:20.955Z,47.17
2017-05-24T02:05:55.206Z,46.84
2017-05-24T02:06:24.379Z,47.04
2017-05-24T02:06:48.820Z,47.20
2017-05-24T02:07:46.412Z,47.40
2017-05-24T02:08:58.329Z,47.87
2017-05-24T02:09:24.934Z,47.83
2017-05-24T02:09:46.932Z,47.65
2017-05-24T02:10:08.811Z,47.39
2017-05-24T02:10:30.940Z,47.45
2017-05-24T02:10:52.799Z,47.29
2017-05-24T02:11:14.757Z,47.54
2017-05-24T02:11:42.938Z,47.51
2017-05-24T02:13:38.596Z,47.23
2017-05-24T02:15:11.964Z,46.78
2017-05-24T02:15:33.896Z,46.97
2017-05-24T02:18:17.195Z,47.32
2017-05-24T02:19:38.482Z,47.38
2017-05-24T02:20:10.212Z,47.83
2017-05-24T02:20:40.583Z,48.08
2017-05-24T02:21:13.248Z,47.99
2017-05-24T02:21:47.800Z,47.92
2017-05-24T02:22:12.877Z,47.57
2017-05-24T02:23:56.028Z,47.70
2017-05-24T02:24:20.390Z,47.61
2017-05-24T02:24:46.977Z,47.52
2017-05-24T02:25:16.369Z,47.67
2017-05-24T02:25:47.684Z,47.89
2017-05-24T02:26:09.412Z,47.81
2017-05-24T02:27:11.956Z,47.82
2017-05-24T02:28:07.868Z,48.12
2017-05-24T02:28:29.929Z,48.04
2017-05-24T02:28:59.372Z,47.89
2017-05-24T02:29:28.843Z,47.66
2017-05-24T02:32:37.021Z,47.94
2017-05-24T02:33:03.532Z,47.61
2017-05-24T02:34:34.437Z,47.68
2017-05-24T02:35:08.335Z,47.46
2017-05-24T02:35:34.893Z,47.57
2017-05-24T02:36:02.418Z,47.53
2017-05-24T02:36:27.023Z,47.49
2017-05-24T02:37:34.354Z,47.48
2017-05-24T02:38:00.953Z,47.34
2017-05-24T02:39:46.084Z,47.40
2017-05-24T02:40:15.462Z,47.48
2017-05-24T02:40:44.531Z,47.61
2017-05-24T02:41:32.861Z,47.53
2017-05-24T02:41:57.342Z,47.56
2017-05-24T02:42:24.100Z,47.71
2017-05-24T02:43:40.933Z,48.19
2017-05-24T02:44:05.890Z,48.11
2017-05-24T02:44:34.250Z,48.14
2017-05-24T02:45:32.960Z,48.19
2017-05-24T02:46:05.409Z,48.21
2017-05-24T02:46:32.099Z,48.26
2017-05-24T02:47:01.621Z,48.41
2017-05-24T02:48:04.376Z,48.45
2017-05-24T02:49:13.670Z,48.63
2017-05-24T02:50:16.242Z,48.45
2017-05-24T02:51:17.131Z,48.43
2017-05-24T02:51:38.872Z,48.54
2017-05-24T02:52:12.735Z,48.45
2017-05-24T02:52:43.872Z,48.61
2017-05-24T02:53:10.435Z,48.61
2017-05-24T02:54:06.739Z,48.67
2017-05-24T02:54:35.999Z,48.75
2017-05-24T02:55:05.509Z,48.62
2017-05-24T02:55:32.022Z,48.51
2017-05-24T02:55:56.519Z,48.57
2017-05-24T02:56:25.927Z,48.57
2017-05-24T02:56:55.311Z,48.87
2017-05-24T02:57:27.715Z,48.89
2017-05-24T02:58:01.790Z,48.94
2017-05-24T02:58:28.400Z,48.94
2017-05-24T02:59:00.031Z,49.03
2017-05-24T03:01:07.525Z,49.26
2017-05-24T03:01:29.375Z,49.08
2017-05-24T03:05:12.806Z,49.08
2017-05-24T03:05:34.543Z,49.28
2017-05-24T03:06:01.043Z,49.23
2017-05-24T03:06:27.576Z,49.18
2017-05-24T03:06:52.258Z,49.30
2017-05-24T03:07:18.715Z,49.33
2017-05-24T03:07:48.992Z,49.24
2017-05-24T03:08:11.134Z,49.26
2017-05-24T03:08:38.651Z,49.09
2017-05-24T03:09:05.334Z,49.17
2017-05-24T03:09:34.586Z,49.25
2017-05-24T03:09:59.246Z,49.38
2017-05-24T03:12:12.234Z,49.62
2017-05-24T03:12:39.742Z,49.93
2017-05-24T03:13:18.519Z,50.70
2017-05-24T03:13:45.128Z,51.29
2017-05-24T03:14:17.949Z,51.87
2017-05-24T03:14:47.131Z,51.77
2017-05-24T03:15:11.939Z,52.07
2017-05-24T03:15:45.868Z,52.33
2017-05-24T03:16:19.803Z,52.11
2017-05-24T03:16:52.180Z,51.98
2017-05-24T03:17:19.355Z,51.83
2017-05-24T03:17:46.104Z,51.67
2017-05-24T03:18:17.982Z,51.44
2017-05-24T03:18:42.640Z,51.52
2017-05-24T03:19:06.957Z,51.98
2017-05-24T03:20:04.202Z,52.30
2017-05-24T03:20:31.506Z,52.32
2017-05-24T03:21:00.908Z,52.32
2017-05-24T03:21:27.531Z,52.50
2017-05-24T03:21:52.103Z,52.52
2017-05-24T03:22:18.754Z,52.70
2017-05-24T03:24:16.718Z,53.04
2017-05-24T03:25:24.050Z,53.00
2017-05-24T03:26:26.629Z,52.58
2017-05-24T03:26:48.364Z,52.67
2017-05-24T03:27:10.064Z,52.98
2017-05-24T03:27:34.404Z,53.12
2017-05-24T03:27:56.196Z,53.04
2017-05-24T03:28:28.397Z,53.10
2017-05-24T03:28:54.970Z,53.04
2017-05-24T03:29:24.868Z,52.93
2017-05-24T03:29:56.116Z,53.02
2017-05-24T03:30:30.274Z,53.37
2017-05-24T03:30:54.744Z,53.74
2017-05-24T03:31:26.244Z,53.75
2017-05-24T03:32:34.225Z,53.03
2017-05-24T03:33:27.395Z,53.55
2017-05-24T03:34:34.720Z,53.55
2017-05-24T03:34:56.465Z,53.29
2017-05-24T03:35:22.983Z,53.51
2017-05-24T03:35:44.705Z,53.45
2017-05-24T03:36:09.332Z,53.56
2017-05-24T03:37:02.757Z,53.07
2017-05-24T03:38:51.992Z,53.79
2017-05-24T03:39:24.274Z,53.70
2017-05-24T03:40:18.186Z,53.50
2017-05-24T03:41:22.901Z,53.76
2017-05-24T03:46:33.576Z,54.27
2017-05-24T03:50:26.588Z,54.16
2017-05-24T03:51:33.806Z,55.30
2017-05-24T03:52:03.016Z,55.12
2017-05-24T03:52:27.837Z,54.98
2017-05-24T03:53:03.883Z,55.16
2017-05-24T03:53:28.773Z,55.46
2017-05-24T03:57:26.856Z,54.77
2017-05-24T04:04:00.954Z,54.68
2017-05-24T04:05:46.935Z,54.68
2017-05-24T04:08:21.769Z,55.83
2017-05-24T04:12:37.544Z,58.50
2017-05-24T04:14:56.031Z,56.84
2017-05-24T04:15:58.805Z,56.92
2017-05-24T04:17:15.227Z,56.85
2017-05-24T04:18:18.910Z,57.22
2017-05-24T04:18:57.792Z,57.23
2017-05-24T04:19:29.017Z,57.11
2017-05-24T04:21:07.990Z,56.54
2017-05-24T04:21:34.605Z,56.30
2017-05-24T04:22:04.231Z,56.91
2017-05-24T04:23:03.492Z,56.28
2017-05-24T04:23:59.125Z,56.37
2017-05-24T04:27:46.261Z,57.48
2017-05-24T04:29:43.414Z,57.21
2017-05-24T04:30:15.594Z,57.32
2017-05-24T04:31:21.987Z,57.27
2017-05-24T04:33:55.184Z,56.64
2017-05-24T04:35:03.412Z,56.92
2017-05-24T04:36:58.673Z,56.37
2017-05-24T04:39:27.666Z,56.18
2017-05-24T04:40:35.284Z,55.92
2017-05-24T04:41:02.926Z,55.60
2017-05-24T04:41:41.854Z,55.80
2017-05-24T04:46:01.478Z,56.14
2017-05-24T04:50:07.189Z,55.69
2017-05-24T04:50:34.329Z,55.61
2017-05-24T04:51:01.709Z,55.54
2017-05-24T04:51:55.000Z,55.87
2017-05-24T04:52:46.416Z,56.09
2017-05-24T04:53:17.712Z,56.43
2017-05-24T04:53:39.585Z,56.17
2017-05-24T04:54:01.516Z,56.37
2017-05-24T04:54:23.400Z,56.67
2017-05-24T04:54:48.971Z,56.47
2017-05-24T04:55:10.910Z,56.41
2017-05-24T04:55:37.539Z,56.09
2017-05-24T04:55:59.447Z,55.91
2017-05-24T05:06:25.240Z,56.20
2017-05-24T05:16:47.313Z,56.21
2017-05-24T05:17:24.390Z,56.23
2017-05-24T05:19:22.680Z,55.83
2017-05-24T05:20:30.121Z,55.86
2017-05-24T05:20:56.761Z,56.18
2017-05-24T05:21:51.114Z,55.85
2017-05-24T05:22:14.094Z,55.96
2017-05-24T05:23:41.181Z,56.17
2017-05-24T05:24:35.512Z,56.83
2017-05-24T05:25:04.244Z,56.35
2017-05-24T05:25:30.885Z,56.23
2017-05-24T05:25:57.670Z,56.08
2017-05-24T05:26:30.050Z,56.10
2017-05-24T05:29:18.136Z,57.13
2017-05-24T05:30:49.383Z,57.66
2017-05-24T05:31:17.096Z,57.16
2017-05-24T05:31:51.026Z,57.06
2017-05-24T05:35:36.714Z,58.09
2017-05-24T05:40:47.222Z,57.65
2017-05-24T05:41:19.532Z,57.66
2017-05-24T05:41:46.702Z,57.20
2017-05-24T05:42:40.969Z,56.25
2017-05-24T05:43:12.288Z,55.95
2017-05-24T05:43:38.950Z,56.42
2017-05-24T05:44:06.516Z,56.31
2017-05-24T05:44:33.192Z,56.42
2017-05-24T05:46:09.818Z,56.31
2017-05-24T05:46:32.691Z,56.42
2017-05-24T05:46:54.481Z,56.42
2017-05-24T05:47:16.287Z,57.02
2017-05-24T05:47:41.125Z,56.94
2017-05-24T05:48:35.349Z,56.80
2017-05-24T05:49:01.923Z,57.62
2017-05-24T05:49:30.742Z,56.85
2017-05-24T05:58:26.531Z,55.62
2017-05-24T06:03:02.531Z,54.88
2017-05-24T06:03:29.107Z,54.76
2017-05-24T06:04:17.590Z,54.16
2017-05-24T06:04:42.262Z,54.17
2017-05-24T06:05:07.590Z,54.19
2017-05-24T06:06:48.884Z,54.40
2017-05-24T06:07:19.189Z,54.14
2017-05-24T06:08:29.126Z,54.22
2017-05-24T06:09:27.216Z,53.91
2017-05-24T06:10:21.375Z,54.14
2017-05-24T06:11:16.778Z,54.00
2017-05-24T06:13:34.317Z,53.94
2017-05-24T06:13:56.142Z,53.92
2017-05-24T06:14:44.636Z,53.74
2017-05-24T06:15:39.920Z,53.87
2017-05-24T06:16:02.111Z,53.77
2017-05-24T06:16:36.112Z,53.95
2017-05-24T06:17:07.529Z,53.93
2017-05-24T06:18:49.473Z,53.41
2017-05-24T06:19:20.892Z,53.41
2017-05-24T06:19:55.188Z,53.51
2017-05-24T06:21:30.675Z,53.31
2017-05-24T06:22:00.400Z,52.98
2017-05-24T06:22:31.861Z,52.72
2017-05-24T06:22:53.811Z,53.10
2017-05-24T06:23:15.932Z,53.17
2017-05-24T06:23:46.539Z,53.06
2017-05-24T06:24:08.705Z,53.03
2017-05-24T06:24:42.984Z,53.16
2017-05-24T06:25:14.177Z,53.11
2017-05-24T06:26:04.178Z,53.11
2017-05-24T06:26:30.789Z,53.69
2017-05-24T06:27:19.396Z,53.84
2017-05-24T06:28:13.770Z,53.86
2017-05-24T06:28:40.524Z,53.52
2017-05-24T06:29:08.491Z,53.01
2017-05-24T06:30:06.697Z,53.91
2017-05-24T06:30:34.535Z,53.82
2017-05-24T06:31:01.195Z,53.75
2017-05-24T06:31:52.813Z,53.66
2017-05-24T06:32:15.794Z,53.65
2017-05-24T06:32:45.931Z,53.16
2017-05-24T06:33:12.758Z,53.41
2017-05-24T06:33:46.171Z,53.34
2017-05-24T06:35:30.901Z,53.71
2017-05-24T06:35:55.914Z,53.75
2017-05-24T06:36:23.313Z,53.73
2017-05-24T06:36:45.314Z,53.76
2017-05-24T06:38:24.994Z,53.72
2017-05-24T06:38:51.605Z,53.36
2017-05-24T06:39:18.266Z,53.37
2017-05-24T06:39:54.120Z,53.51
2017-05-24T06:40:20.614Z,53.64
2017-05-24T06:40:44.155Z,53.75
2017-05-24T06:41:15.415Z,53.87
2017-05-24T06:41:39.336Z,54.12
2017-05-24T06:42:04.996Z,54.15
2017-05-24T06:42:31.736Z,54.43
2017-05-24T06:42:58.277Z,53.63
2017-05-24T06:44:41.630Z,53.32
2017-05-24T06:45:03.599Z,53.56
2017-05-24T06:46:09.744Z,53.88
2017-05-24T06:46:31.523Z,53.44
2017-05-24T06:46:53.434Z,53.33
2017-05-24T06:47:25.227Z,53.33
2017-05-24T06:47:49.054Z,53.42
2017-05-24T06:48:10.940Z,53.51
2017-05-24T06:48:38.480Z,53.53
2017-05-24T06:49:03.073Z,53.43
2017-05-24T06:49:29.603Z,53.00
2017-05-24T06:49:55.328Z,53.06
2017-05-24T06:50:23.175Z,52.88
2017-05-24T06:50:57.187Z,52.76
2017-05-24T06:51:53.337Z,52.20
2017-05-24T06:52:20.758Z,52.13
2017-05-24T06:52:45.607Z,52.18
2017-05-24T06:53:12.167Z,52.31
2017-05-24T06:53:34.004Z,52.78
2017-05-24T06:53:56.099Z,52.79
2017-05-24T06:54:22.735Z,52.71
2017-05-24T06:55:21.658Z,52.52
2017-05-24T06:55:50.631Z,52.56
2017-05-24T06:56:15.481Z,52.39
2017-05-24T06:56:38.429Z,52.30
2017-05-24T06:57:00.320Z,52.24
2017-05-24T06:58:02.784Z,51.72
2017-05-24T06:58:29.315Z,51.76
2017-05-24T06:58:55.944Z,51.93
2017-05-24T06:59:22.616Z,51.94
2017-05-24T06:59:44.565Z,51.84
2017-05-24T07:00:06.362Z,51.85
2017-05-24T07:00:28.229Z,52.07
2017-05-24T07:00:51.149Z,52.05
2017-05-24T07:01:13.141Z,52.18
2017-05-24T07:02:15.108Z,51.95
2017-05-24T07:02:41.585Z,52.05
2017-05-24T07:03:08.379Z,52.08
2017-05-24T07:04:02.583Z,51.95
2017-05-24T07:04:38.671Z,52.09
2017-05-24T07:07:23.770Z,53.06
2017-05-24T07:07:48.264Z,53.29
2017-05-24T07:08:19.559Z,53.53
2017-05-24T07:08:53.398Z,53.62
2017-05-24T07:09:22.593Z,53.48
2017-05-24T07:09:52.155Z,53.65
2017-05-24T07:10:25.879Z,53.51
2017-05-24T07:11:00.036Z,53.55
2017-05-24T07:11:26.619Z,53.19
2017-05-24T07:11:57.790Z,53.23
2017-05-24T07:12:30.418Z,53.04
2017-05-24T07:12:57.062Z,52.81
2017-05-24T07:13:18.921Z,52.96
2017-05-24T07:13:45.783Z,52.74
2017-05-24T07:14:12.602Z,52.29
2017-05-24T07:14:39.673Z,52.23
2017-05-24T07:15:13.314Z,51.87
2017-05-24T07:15:35.072Z,51.68
2017-05-24T07:16:09.376Z,51.62
2017-05-24T07:18:27.176Z,51.98
2017-05-24T07:18:48.971Z,51.87
2017-05-24T07:19:56.294Z,51.96
2017-05-24T07:20:18.031Z,51.80
2017-05-24T07:20:44.627Z,51.63
2017-05-24T07:21:06.387Z,51.63
2017-05-24T07:21:37.843Z,51.75
2017-05-24T07:21:59.776Z,51.67
2017-05-24T07:22:31.049Z,51.77
2017-05-24T07:22:52.862Z,51.69
2017-05-24T07:23:19.390Z,51.60
2017-05-24T07:23:41.169Z,51.45
2017-05-24T07:24:12.483Z,51.53
2017-05-24T07:24:34.318Z,51.54
2017-05-24T07:25:05.627Z,51.53
2017-05-24T07:25:27.384Z,51.29
2017-05-24T07:26:34.741Z,50.91
2017-05-24T07:26:56.428Z,50.99
2017-05-24T07:27:18.140Z,51.16
2017-05-24T07:27:39.869Z,50.81
2017-05-24T07:28:01.647Z,51.29
2017-05-24T07:28:23.420Z,51.34
2017-05-24T07:28:45.143Z,51.55
2017-05-24T07:29:06.838Z,51.37
2017-05-24T07:29:28.550Z,51.52
2017-05-24T07:29:50.250Z,51.36
2017-05-24T07:30:11.982Z,51.48
2017-05-24T07:30:33.687Z,51.80
2017-05-24T07:30:55.545Z,51.53
2017-05-24T07:31:17.421Z,51.60
2017-05-24T07:31:39.189Z,51.78
2017-05-24T07:32:01.003Z,52.32
2017-05-24T07:32:25.456Z,51.79
2017-05-24T07:32:47.250Z,51.69
2017-05-24T07:33:09.010Z,51.44
2017-05-24T07:33:30.838Z,51.40
2017-05-24T07:33:52.653Z,51.45
2017-05-24T07:34:14.429Z,51.99
2017-05-24T07:34:36.327Z,51.95
2017-05-24T07:35:38.915Z,52.58
2017-05-24T07:36:42.074Z,53.92
2017-05-24T07:38:21.398Z,53.20
2017-05-24T07:38:43.173Z,54.07
2017-05-24T07:39:14.465Z,54.23
2017-05-24T07:39:36.235Z,53.45
2017-05-24T07:39:58.030Z,53.17
2017-05-24T07:40:24.571Z,53.73
2017-05-24T07:40:46.363Z,54.29
2017-05-24T07:41:17.630Z,53.22
2017-05-24T07:42:25.549Z,51.88
2017-05-24T07:42:52.134Z,51.63
2017-05-24T07:43:13.914Z,51.53
2017-05-24T07:43:40.423Z,51.61
2017-05-24T07:44:02.251Z,51.48
2017-05-24T07:45:41.388Z,52.11
2017-05-24T07:46:03.182Z,51.67
2017-05-24T07:46:24.923Z,51.51
2017-05-24T07:46:46.728Z,51.84
2017-05-24T07:47:13.285Z,52.05
2017-05-24T07:47:39.190Z,52.06
2017-05-24T07:48:54.748Z,52.08
2017-05-24T07:49:16.579Z,52.06
2017-05-24T07:49:43.128Z,51.91
2017-05-24T07:50:05.002Z,51.88
2017-05-24T07:50:31.734Z,51.68
2017-05-24T07:50:58.481Z,51.72
2017-05-24T07:52:38.712Z,52.01
2017-05-24T07:53:35.230Z,51.57
2017-05-24T07:54:01.853Z,51.77
2017-05-24T07:54:32.966Z,51.38
2017-05-24T07:54:54.684Z,51.41
2017-05-24T07:55:24.357Z,50.69
2017-05-24T07:55:46.093Z,50.65
2017-05-24T07:56:07.842Z,50.74
2017-05-24T07:56:29.537Z,50.92
2017-05-24T07:57:27.932Z,51.07
2017-05-24T07:57:55.492Z,50.73
2017-05-24T07:58:20.184Z,50.61
2017-05-24T07:58:41.938Z,51.05
2017-05-24T07:59:03.722Z,51.36
2017-05-24T07:59:25.520Z,51.48
2017-05-24T08:00:13.851Z,50.50
2017-05-24T08:00:35.654Z,50.58
2017-05-24T08:00:57.436Z,50.56
2017-05-24T08:01:19.170Z,50.68
2017-05-24T08:01:40.926Z,49.94
2017-05-24T08:02:02.753Z,50.20
2017-05-24T08:02:24.467Z,50.20
2017-05-24T08:02:46.242Z,50.57
2017-05-24T08:03:08.015Z,51.17
2017-05-24T08:03:34.556Z,50.91
2017-05-24T08:03:56.421Z,50.73
2017-05-24T08:04:18.228Z,51.14
2017-05-24T08:04:40.128Z,51.21
2017-05-24T08:05:01.864Z,50.80
2017-05-24T08:05:26.058Z,51.19
2017-05-24T08:05:47.931Z,51.59
2017-05-24T08:06:50.509Z,50.50
2017-05-24T08:07:12.296Z,50.49
2017-05-24T08:07:34.099Z,50.28
2017-05-24T08:07:55.964Z,49.91
2017-05-24T08:08:58.478Z,50.18
2017-05-24T08:09:20.308Z,50.34
2017-05-24T08:09:42.049Z,50.22
2017-05-24T08:10:03.769Z,50.21
2017-05-24T08:10:25.479Z,49.97
2017-05-24T08:10:47.198Z,49.82
2017-05-24T08:11:09.056Z,50.35
2017-05-24T08:11:35.616Z,50.96
2017-05-24T08:12:01.279Z,50.70
2017-05-24T08:12:54.420Z,50.21
2017-05-24T08:13:16.276Z,50.13
2017-05-24T08:14:42.566Z,51.53
2017-05-24T08:16:18.550Z,50.83
2017-05-24T08:16:46.074Z,50.44
2017-05-24T08:17:47.498Z,50.24
2017-05-24T08:18:09.207Z,50.23
2017-05-24T08:18:31.192Z,50.17
2017-05-24T08:18:52.947Z,50.19
2017-05-24T08:19:14.653Z,50.12
2017-05-24T08:19:36.363Z,49.93
2017-05-24T08:19:58.079Z,49.67
2017-05-24T08:20:19.792Z,49.64
2017-05-24T08:20:41.608Z,49.18
2017-05-24T08:21:06.037Z,49.45
2017-05-24T08:21:30.089Z,49.46
2017-05-24T08:21:51.869Z,49.57
2017-05-24T08:22:13.773Z,49.62
2017-05-24T08:22:35.556Z,49.37
2017-05-24T08:22:57.341Z,49.71
2017-05-24T08:23:19.104Z,49.70
2017-05-24T08:23:41.003Z,49.48
2017-05-24T08:24:02.882Z,49.48
2017-05-24T08:24:32.293Z,49.39
2017-05-24T08:25:08.321Z,49.57
2017-05-24T08:26:11.847Z,49.62
2017-05-24T08:26:33.547Z,49.30
2017-05-24T08:26:55.296Z,49.99
2017-05-24T08:27:20.797Z,49.85
2017-05-24T08:27:43.569Z,50.43
2017-05-24T08:28:19.576Z,50.82
2017-05-24T08:28:48.933Z,50.80
2017-05-24T08:29:18.054Z,50.20
2017-05-24T08:29:52.224Z,50.19
2017-05-24T08:30:27.593Z,50.21
2017-05-24T08:30:56.448Z,50.18
2017-05-24T08:31:26.839Z,50.55
2017-05-24T08:31:53.326Z,50.10
2017-05-24T08:32:19.848Z,50.65
2017-05-24T08:32:46.396Z,50.40
2017-05-24T08:33:52.534Z,50.20
2017-05-24T08:34:23.801Z,50.42
2017-05-24T08:35:57.023Z,50.21
2017-05-24T08:36:24.747Z,50.04
2017-05-24T08:36:55.842Z,50.29
2017-05-24T08:37:17.712Z,50.27
2017-05-24T08:38:10.710Z,51.58
2017-05-24T08:38:59.004Z,50.28
2017-05-24T08:39:20.839Z,50.33
2017-05-24T08:39:46.645Z,50.17
2017-05-24T08:40:13.276Z,49.95
2017-05-24T08:40:44.544Z,49.71
2017-05-24T08:41:06.369Z,49.82
2017-05-24T08:41:28.099Z,49.93
2017-05-24T08:41:50.818Z,50.21
2017-05-24T08:42:12.514Z,50.37
2017-05-24T08:42:43.824Z,50.78
2017-05-24T08:43:10.890Z,50.36
2017-05-24T08:43:32.609Z,50.24
2017-05-24T08:43:54.317Z,50.22
2017-05-24T08:44:20.795Z,50.71
2017-05-24T08:45:23.273Z,50.81
2017-05-24T08:45:50.026Z,50.71
2017-05-24T08:46:16.515Z,51.01
2017-05-24T08:46:42.867Z,50.47
2017-05-24T08:47:31.275Z,50.07
2017-05-24T08:47:55.921Z,49.78
2017-05-24T08:48:30.260Z,49.62
2017-05-24T08:49:38.896Z,49.84
2017-05-24T08:50:00.637Z,49.66
2017-05-24T08:50:57.617Z,50.21
2017-05-24T08:51:26.115Z,49.99
2017-05-24T08:51:47.851Z,50.27
2017-05-24T08:52:43.042Z,50.81
2017-05-24T08:53:12.216Z,49.96
2017-05-24T08:53:38.846Z,50.70
2017-05-24T08:54:05.749Z,50.69
2017-05-24T08:54:32.232Z,50.35
2017-05-24T08:54:53.970Z,50.20
2017-05-24T08:55:15.760Z,50.12
2017-05-24T08:55:39.497Z,50.13
2017-05-24T08:56:01.280Z,50.06
2017-05-24T08:56:28.821Z,50.14
2017-05-24T08:57:27.481Z,50.15
2017-05-24T08:58:23.867Z,50.00
2017-05-24T08:59:27.681Z,49.33
2017-05-24T08:59:49.466Z,49.12
2017-05-24T09:00:11.232Z,49.05
2017-05-24T09:00:40.208Z,48.98
2017-05-24T09:01:09.325Z,49.31
2017-05-24T09:01:38.522Z,49.39
2017-05-24T09:02:09.851Z,49.33
2017-05-24T09:02:31.556Z,49.15
2017-05-24T09:02:53.322Z,49.39
2017-05-24T09:03:27.628Z,49.73
2017-05-24T09:03:54.820Z,49.49
2017-05-24T09:04:21.256Z,49.02
2017-05-24T09:04:50.854Z,48.96
2017-05-24T09:05:20.149Z,48.98
2017-05-24T09:05:49.414Z,49.98
2017-05-24T09:06:11.339Z,49.78
2017-05-24T09:07:33.649Z,50.36
2017-05-24T09:07:59.223Z,49.86
2017-05-24T09:08:23.588Z,50.00
2017-05-24T09:08:50.192Z,49.65
2017-05-24T09:09:17.038Z,49.45
2017-05-24T09:09:46.340Z,49.50
2017-05-24T09:10:08.098Z,49.25
2017-05-24T09:11:45.749Z,49.21
2017-05-24T09:13:41.215Z,49.20
2017-05-24T09:14:10.364Z,48.92
2017-05-24T09:16:08.953Z,49.47
2017-05-24T09:16:31.915Z,49.20
2017-05-24T09:16:53.708Z,49.33
2017-05-24T09:17:44.759Z,49.19
2017-05-24T09:18:06.598Z,49.53
2017-05-24T09:18:34.228Z,49.63
2017-05-24T09:19:00.911Z,49.60
2017-05-24T09:19:30.063Z,50.04
2017-05-24T09:19:54.979Z,50.01
2017-05-24T09:20:16.967Z,50.02
2017-05-24T09:20:43.822Z,50.01
2017-05-24T09:21:05.983Z,49.89
2017-05-24T09:21:32.518Z,50.00
2017-05-24T09:21:59.337Z,49.98
2017-05-24T09:22:25.898Z,49.83
2017-05-24T09:22:56.188Z,49.20
2017-05-24T09:23:18.084Z,49.07
2017-05-24T09:23:42.042Z,49.26
2017-05-24T09:24:08.006Z,49.39
2017-05-24T09:24:34.639Z,49.29
2017-05-24T09:24:58.546Z,49.25
2017-05-24T09:25:25.068Z,49.37
2017-05-24T09:26:51.667Z,50.11
2017-05-24T09:27:18.518Z,50.14
2017-05-24T09:27:40.286Z,49.63
2017-05-24T09:28:06.808Z,49.67
2017-05-24T09:28:29.666Z,49.57
2017-05-24T09:28:51.305Z,49.49
2017-05-24T09:29:18.550Z,49.45
2017-05-24T09:29:45.083Z,49.46
2017-05-24T09:30:06.924Z,49.50
2017-05-24T09:30:28.816Z,49.35
2017-05-24T09:30:53.615Z,49.21
2017-05-24T09:31:20.214Z,49.43
2017-05-24T09:31:44.969Z,49.65
2017-05-24T09:32:14.254Z,49.69
2017-05-24T09:32:36.133Z,49.77
2017-05-24T09:32:58.129Z,49.96
2017-05-24T09:33:22.729Z,50.44
2017-05-24T09:33:49.216Z,49.73
2017-05-24T09:34:10.960Z,50.15
2017-05-24T09:34:37.639Z,50.02
2017-05-24T09:35:42.831Z,50.27
2017-05-24T09:36:07.410Z,50.27
2017-05-24T09:36:35.399Z,49.91
2017-05-24T09:37:34.313Z,50.91
2017-05-24T09:38:00.811Z,50.68
2017-05-24T09:38:22.556Z,50.80
2017-05-24T09:38:44.404Z,50.34
2017-05-24T09:40:13.492Z,50.20
2017-05-24T09:40:35.191Z,50.05
2017-05-24T09:40:57.969Z,50.52
2017-05-24T09:41:19.831Z,50.58
2017-05-24T09:41:44.419Z,50.70
2017-05-24T09:42:06.566Z,50.73
2017-05-24T09:42:33.127Z,50.71
2017-05-24T09:42:59.625Z,50.53
2017-05-24T09:43:52.674Z,50.05
2017-05-24T09:44:14.415Z,49.77
2017-05-24T09:44:36.222Z,49.51
2017-05-24T09:44:58.033Z,49.39
2017-05-24T09:46:02.380Z,49.36
2017-05-24T09:46:24.149Z,49.19
2017-05-24T09:46:45.941Z,49.31